Time;durP1;ratioP1;P1;durP2;ratioP2;P2;SDS_P1;SDS_P2;PMS_P1;PMS_P2;Temp;Humidity;BMP_temperature;BMP_pressure;BME280_temperature;BME280_humidity;BME280_pressure;Samples;Min_cycle;Max_cycle;Signal;HPM_P1;HPM_P2
2022/04/13 00:01:42;;;;;;;5.82;2.15;;;16.90;59.50;;;;;;5053933;28;20542;-32
2022/04/13 00:04:08;;;;;;;5.35;2.28;;;16.90;59.50;;;;;;5053580;28;20033;-33
2022/04/13 00:06:38;;;;;;;6.00;2.20;;;16.90;59.40;;;;;;5053391;28;20036;-32
2022/04/13 00:09:08;;;;;;;4.60;2.05;;;16.90;59.40;;;;;;5053891;28;20044;-36
2022/04/13 00:11:34;;;;;;;4.53;1.80;;;16.90;59.30;;;;;;5035439;28;20029;-31
2022/04/13 00:14:01;;;;;;;5.38;2.30;;;16.90;59.30;;;;;;5053639;28;20036;-32
2022/04/13 00:16:27;;;;;;;4.63;2.08;;;16.80;59.30;;;;;;5053563;28;20365;-31
2022/04/13 00:18:53;;;;;;;5.43;2.42;;;16.80;59.40;;;;;;5053389;28;20032;-33
2022/04/13 00:21:19;;;;;;;4.70;2.03;;;16.80;59.60;;;;;;5053303;28;20079;-32
2022/04/13 00:23:45;;;;;;;6.50;1.98;;;16.70;59.80;;;;;;5053104;28;20068;-34
2022/04/13 00:26:10;;;;;;;6.38;2.10;;;16.70;60.00;;;;;;5035550;28;20041;-33
2022/04/13 00:28:36;;;;;;;5.00;1.83;;;16.70;60.10;;;;;;5053054;28;20029;-32
2022/04/13 00:31:01;;;;;;;6.10;2.10;;;16.60;60.10;;;;;;5052954;28;20036;-31
2022/04/13 00:33:27;;;;;;;4.53;2.17;;;16.60;60.30;;;;;;5035156;28;20032;-32
2022/04/13 00:35:56;;;;;;;5.20;1.98;;;16.60;60.60;;;;;;5053107;28;20025;-37
2022/04/13 00:38:22;;;;;;;5.40;2.10;;;16.60;60.80;;;;;;5053048;28;20043;-35
2022/04/13 00:40:48;;;;;;;8.93;2.20;;;16.50;61.00;;;;;;5052950;28;20480;-33
2022/04/13 00:43:14;;;;;;;3.67;1.88;;;16.50;61.10;;;;;;5052913;28;20029;-32
2022/04/13 00:45:47;;;;;;;4.93;2.35;;;16.40;61.20;;;;;;5052598;28;20032;-30
2022/04/13 00:48:38;;;;;;;4.20;2.33;;;16.40;61.40;;;;;;5052881;28;20032;-33
2022/04/13 00:51:04;;;;;;;4.28;2.13;;;16.40;61.60;;;;;;5052765;28;20035;-31
2022/04/13 00:53:30;;;;;;;5.32;2.13;;;16.30;61.70;;;;;;5052806;28;20104;-31
2022/04/13 00:55:58;;;;;;;5.30;2.00;;;16.30;61.90;;;;;;5052781;28;20029;-32
2022/04/13 00:58:28;;;;;;;3.83;2.38;;;16.30;62.00;;;;;;5052786;28;20059;-33
2022/04/13 01:00:55;;;;;;;6.18;2.08;;;16.30;62.20;;;;;;5052994;28;20075;-33
2022/04/13 01:03:24;;;;;;;8.02;2.40;;;16.30;62.40;;;;;;5052844;28;20546;-35
2022/04/13 01:05:51;;;;;;;5.80;2.35;;;16.20;62.50;;;;;;5052641;28;20025;-31
2022/04/13 01:08:20;;;;;;;3.90;2.15;;;16.20;62.40;;;;;;5052722;28;20032;-32
2022/04/13 01:10:47;;;;;;;7.50;2.25;;;16.20;62.50;;;;;;5052826;28;20032;-33
2022/04/13 01:13:14;;;;;;;5.43;2.25;;;16.20;62.60;;;;;;5052629;28;20127;-34
2022/04/13 01:15:40;;;;;;;4.95;2.17;;;16.10;62.50;;;;;;5052832;28;20028;-31
2022/04/13 01:18:06;;;;;;;5.45;2.20;;;16.10;62.60;;;;;;5052654;28;20036;-34
2022/04/13 01:20:34;;;;;;;5.43;2.00;;;16.10;62.50;;;;;;5052681;28;20107;-33
2022/04/13 01:23:00;;;;;;;4.70;2.58;;;16.10;62.60;;;;;;5034634;28;20505;-33
2022/04/13 01:25:26;;;;;;;5.85;2.35;;;16.10;62.60;;;;;;5052421;28;20139;-32
2022/04/13 01:27:51;;;;;;;6.40;2.30;;;16.10;62.60;;;;;;5052782;28;20143;-31
2022/04/13 01:30:17;;;;;;;6.32;2.17;;;16.00;62.60;;;;;;5052683;28;20021;-42
2022/04/13 01:32:43;;;;;;;5.22;2.60;;;16.00;62.60;;;;;;5052387;28;20033;-33
2022/04/13 01:35:08;;;;;;;6.38;2.92;;;16.00;62.60;;;;;;5034611;28;20029;-31
2022/04/13 01:37:34;;;;;;;4.45;2.50;;;16.00;62.60;;;;;;5052547;28;20362;-31
2022/04/13 01:40:00;;;;;;;5.22;2.20;;;15.90;62.60;;;;;;5052388;28;20075;-31
2022/04/13 01:42:26;;;;;;;6.57;2.40;;;15.90;62.70;;;;;;5034443;28;20068;-32
2022/04/13 01:44:52;;;;;;;7.47;2.20;;;15.90;62.70;;;;;;5052368;28;20048;-34
2022/04/13 01:47:17;;;;;;;5.22;2.50;;;15.80;62.70;;;;;;5052287;28;20032;-39
2022/04/13 01:49:43;;;;;;;3.97;2.22;;;15.80;62.80;;;;;;5052312;28;20056;-30
2022/04/13 01:52:10;;;;;;;5.78;2.40;;;15.80;62.90;;;;;;5052226;28;20033;-33
2022/04/13 01:54:36;;;;;;;4.95;2.47;;;15.80;63.00;;;;;;5052188;28;20033;-34
2022/04/13 01:57:02;;;;;;;6.47;2.30;;;15.70;63.00;;;;;;5053358;28;20399;-32
2022/04/13 01:59:28;;;;;;;7.55;2.28;;;15.70;63.00;;;;;;5055917;28;20036;-32
2022/04/13 02:01:54;;;;;;;6.15;2.45;;;15.70;63.00;;;;;;5055963;28;20033;-31
2022/04/13 02:04:25;;;;;;;6.50;2.40;;;15.70;63.00;;;;;;5055945;28;20033;-31
2022/04/13 02:06:52;;;;;;;7.22;2.60;;;15.60;63.00;;;;;;5056015;28;20029;-32
2022/04/13 02:09:18;;;;;;;7.18;2.70;;;15.60;63.10;;;;;;5055635;28;20036;-33
2022/04/13 02:11:45;;;;;;;5.07;2.40;;;15.60;63.20;;;;;;5055749;28;20040;-33
2022/04/13 02:14:12;;;;;;;6.38;2.53;;;15.60;63.20;;;;;;5055709;28;20108;-31
2022/04/13 02:16:38;;;;;;;5.38;2.42;;;15.50;63.20;;;;;;5055641;28;20126;-31
2022/04/13 02:19:06;;;;;;;5.10;2.47;;;15.50;63.30;;;;;;5038102;28;20353;-31
2022/04/13 02:21:32;;;;;;;6.43;2.67;;;15.50;64.00;;;;;;5055360;28;20029;-33
2022/04/13 02:23:58;;;;;;;6.57;2.90;;;15.50;63.50;;;;;;5014523;28;20328;-31
2022/04/13 02:26:24;;;;;;;6.63;2.45;;;15.40;63.50;;;;;;5015861;28;20033;-33
2022/04/13 02:28:50;;;;;;;5.72;2.50;;;15.40;63.60;;;;;;5015892;28;20448;-35
2022/04/13 02:31:17;;;;;;;10.93;2.90;;;15.40;63.60;;;;;;5015876;28;20037;-32
2022/04/13 02:33:42;;;;;;;6.28;2.75;;;15.40;63.70;;;;;;5015862;28;20406;-32
2022/04/13 02:36:08;;;;;;;6.43;2.75;;;15.40;63.80;;;;;;5014222;28;20064;-46
2022/04/13 02:38:34;;;;;;;6.32;2.72;;;15.40;63.80;;;;;;5015741;28;20080;-35
2022/04/13 02:41:00;;;;;;;9.15;2.80;;;15.40;63.90;;;;;;5015778;28;20153;-33
2022/04/13 02:43:27;;;;;;;8.20;3.17;;;15.40;64.00;;;;;;5015330;28;20121;-32
2022/04/13 02:45:53;;;;;;;4.85;2.72;;;15.40;64.00;;;;;;5015773;28;20509;-35
2022/04/13 02:48:19;;;;;;;5.05;2.67;;;15.40;64.00;;;;;;5014396;28;20049;-35
2022/04/13 02:50:45;;;;;;;5.30;2.50;;;15.40;64.10;;;;;;5015206;28;20026;-33
2022/04/13 02:53:10;;;;;;;5.72;2.63;;;15.40;64.10;;;;;;5015243;28;20026;-36
2022/04/13 02:55:36;;;;;;;5.75;2.92;;;15.40;64.20;;;;;;5015191;28;20029;-36
2022/04/13 02:58:02;;;;;;;6.35;3.20;;;15.40;64.30;;;;;;5013864;28;20160;-32
2022/04/13 03:00:27;;;;;;;7.65;2.90;;;15.30;64.30;;;;;;5015023;28;20026;-30
2022/04/13 03:02:53;;;;;;;6.43;2.92;;;15.30;64.40;;;;;;5015001;28;20038;-32
2022/04/13 03:05:19;;;;;;;6.15;2.50;;;15.30;64.40;;;;;;5015014;28;20033;-36
2022/04/13 03:07:44;;;;;;;7.45;3.10;;;15.30;64.50;;;;;;5014822;28;20133;-30
2022/04/13 03:10:11;;;;;;;5.00;2.65;;;15.30;64.60;;;;;;5014982;28;20053;-36
2022/04/13 03:12:36;;;;;;;8.05;3.20;;;15.30;64.70;;;;;;5015068;28;20030;-30
2022/04/13 03:15:06;;;;;;;7.63;3.20;;;15.30;64.70;;;;;;5015222;28;20044;-31
2022/04/13 03:17:32;;;;;;;6.75;3.17;;;15.30;64.90;;;;;;5014618;28;20049;-32
2022/04/13 03:19:57;;;;;;;6.80;3.42;;;15.30;64.90;;;;;;5014640;28;20026;-34
2022/04/13 03:22:24;;;;;;;7.30;3.35;;;15.30;65.00;;;;;;5013183;28;20061;-31
2022/04/13 03:24:51;;;;;;;8.98;3.70;;;15.20;65.00;;;;;;5014655;28;20042;-31
2022/04/13 03:27:17;;;;;;;9.38;3.50;;;15.20;65.10;;;;;;5014813;28;20525;-32
2022/04/13 03:29:42;;;;;;;5.57;3.20;;;15.20;65.20;;;;;;5014492;28;20113;-32
2022/04/13 03:32:08;;;;;;;6.40;3.60;;;15.20;65.30;;;;;;5014744;28;20574;-32
2022/04/13 03:34:34;;;;;;;8.77;3.60;;;15.10;65.40;;;;;;5014353;28;20030;-34
2022/04/13 03:37:00;;;;;;;8.50;3.80;;;15.10;65.50;;;;;;5014658;28;20026;-35
2022/04/13 03:39:25;;;;;;;5.38;3.60;;;15.10;65.50;;;;;;5014540;28;20026;-31
2022/04/13 03:41:51;;;;;;;6.15;3.50;;;15.10;65.60;;;;;;5014546;28;20362;-32
2022/04/13 03:44:17;;;;;;;7.55;3.80;;;15.10;65.70;;;;;;5014427;28;20041;-30
2022/04/13 03:46:43;;;;;;;7.63;3.83;;;15.10;65.80;;;;;;5014283;28;20072;-31
2022/04/13 03:49:08;;;;;;;5.35;3.65;;;15.10;65.80;;;;;;5014278;28;20053;-31
2022/04/13 03:51:35;;;;;;;6.80;3.60;;;15.00;65.90;;;;;;5014225;28;20026;-35
2022/04/13 03:54:00;;;;;;;6.63;4.10;;;15.00;66.00;;;;;;5014283;28;20033;-31
2022/04/13 03:56:26;;;;;;;8.93;4.03;;;15.00;66.10;;;;;;5014134;28;20029;-33
2022/04/13 03:58:51;;;;;;;10.75;4.00;;;15.00;66.20;;;;;;5013948;28;20409;-32
2022/04/13 04:01:17;;;;;;;7.72;3.88;;;14.90;66.20;;;;;;5014232;28;20383;-31
2022/04/13 04:03:43;;;;;;;7.97;4.20;;;14.80;66.30;;;;;;5014125;28;20080;-31
2022/04/13 04:06:08;;;;;;;6.57;3.53;;;14.80;66.50;;;;;;5013968;28;20405;-32
2022/04/13 04:08:35;;;;;;;6.68;3.63;;;14.80;66.60;;;;;;5013772;28;20025;-31
2022/04/13 04:11:00;;;;;;;6.30;4.20;;;14.80;66.70;;;;;;5013630;28;20049;-31
2022/04/13 04:13:26;;;;;;;5.38;3.90;;;14.70;66.80;;;;;;5013766;28;20026;-35
2022/04/13 04:15:52;;;;;;;6.40;4.05;;;14.70;67.00;;;;;;5013802;28;20104;-33
2022/04/13 04:18:17;;;;;;;11.48;4.07;;;14.60;67.00;;;;;;5013931;28;20014;-31
2022/04/13 04:20:43;;;;;;;7.43;4.20;;;14.60;67.10;;;;;;5013005;28;20203;-31
2022/04/13 04:23:09;;;;;;;8.43;4.38;;;14.50;67.20;;;;;;5039318;28;20106;-37
2022/04/13 04:25:34;;;;;;;6.20;4.22;;;14.50;67.40;;;;;;5053137;28;20028;-33
2022/04/13 04:28:00;;;;;;;11.70;4.90;;;14.40;67.50;;;;;;5053107;28;20017;-31
2022/04/13 04:30:26;;;;;;;7.65;4.50;;;14.40;67.60;;;;;;5035154;28;20021;-34
2022/04/13 04:32:51;;;;;;;7.97;4.30;;;14.40;67.70;;;;;;5053375;28;20021;-35
2022/04/13 04:35:17;;;;;;;9.75;4.70;;;14.40;67.80;;;;;;5053036;28;20021;-31
2022/04/13 04:37:42;;;;;;;7.18;4.40;;;14.30;67.90;;;;;;5052968;28;20029;-34
2022/04/13 04:40:08;;;;;;;9.10;4.53;;;14.30;67.90;;;;;;5052898;28;20051;-30
2022/04/13 04:42:54;;;;;;;9.32;4.40;;;14.30;68.00;;;;;;5053233;28;20108;-31
2022/04/13 04:45:20;;;;;;;7.35;4.30;;;14.20;68.10;;;;;;5052850;28;20036;-32
2022/04/13 04:47:47;;;;;;;7.85;4.35;;;14.20;68.10;;;;;;5053017;28;20548;-30
2022/04/13 04:50:13;;;;;;;6.85;4.50;;;14.10;68.30;;;;;;5052739;28;20091;-31
2022/04/13 04:52:41;;;;;;;8.05;4.57;;;14.10;68.50;;;;;;5052674;28;20028;-32
2022/04/13 04:55:08;;;;;;;8.77;4.60;;;14.00;68.70;;;;;;5052986;28;20014;-31
2022/04/13 04:57:33;;;;;;;8.30;5.10;;;14.00;68.90;;;;;;5053041;28;20017;-31
2022/04/13 04:59:59;;;;;;;7.85;5.03;;;14.00;69.00;;;;;;5052747;28;20493;-34
2022/04/13 05:02:25;;;;;;;9.82;5.10;;;14.00;69.10;;;;;;5052994;28;20472;-35
2022/04/13 05:04:51;;;;;;;10.15;4.85;;;13.90;69.10;;;;;;5052886;28;20107;-33
2022/04/13 05:07:16;;;;;;;6.85;4.95;;;13.90;69.20;;;;;;5052630;28;20033;-32
2022/04/13 05:09:42;;;;;;;10.55;5.00;;;13.90;69.30;;;;;;5052631;28;20074;-33
2022/04/13 05:12:08;;;;;;;10.27;5.15;;;13.90;69.40;;;;;;5052485;28;20091;-33
2022/04/13 05:14:34;;;;;;;8.38;5.30;;;13.90;69.40;;;;;;5052557;28;20051;-32
2022/04/13 05:17:00;;;;;;;7.95;5.53;;;13.90;69.40;;;;;;5052711;28;20436;-31
2022/04/13 05:19:25;;;;;;;7.82;5.20;;;14.00;69.50;;;;;;5052544;28;20040;-32
2022/04/13 05:21:51;;;;;;;9.48;5.38;;;14.00;69.50;;;;;;5052394;28;20036;-31
2022/04/13 05:24:16;;;;;;;9.38;5.55;;;14.00;69.60;;;;;;5052515;28;20419;-30
2022/04/13 05:26:42;;;;;;;8.63;5.78;;;14.00;69.60;;;;;;5052386;28;20388;-34
2022/04/13 05:29:07;;;;;;;11.45;5.90;;;14.00;69.60;;;;;;5052517;28;20112;-31
2022/04/13 05:31:33;;;;;;;9.70;5.40;;;14.00;69.70;;;;;;5052741;28;20487;-30
2022/04/13 05:33:58;;;;;;;8.27;5.40;;;14.00;69.70;;;;;;5056598;28;20529;-31
2022/04/13 05:36:24;;;;;;;9.70;5.20;;;14.10;69.70;;;;;;5056358;28;20074;-33
2022/04/13 05:38:50;;;;;;;9.40;5.40;;;14.10;69.70;;;;;;5056652;28;20024;-31
2022/04/13 05:41:15;;;;;;;9.07;5.57;;;14.20;69.70;;;;;;5056484;28;20032;-31
2022/04/13 05:43:41;;;;;;;11.55;5.95;;;14.30;69.60;;;;;;5056189;28;20029;-30
2022/04/13 05:46:06;;;;;;;11.20;5.35;;;14.30;69.60;;;;;;5056120;28;20100;-31
2022/04/13 05:48:32;;;;;;;7.00;5.47;;;14.40;69.50;;;;;;5055979;28;20373;-33
2022/04/13 05:50:59;;;;;;;8.60;5.03;;;14.40;69.50;;;;;;5055920;28;20051;-32
2022/04/13 05:53:25;;;;;;;8.02;5.10;;;14.40;69.50;;;;;;5056052;28;20025;-40
2022/04/13 05:55:57;;;;;;;11.65;5.30;;;14.50;69.40;;;;;;5056304;28;20029;-38
2022/04/13 05:58:24;;;;;;;11.63;5.15;;;14.50;69.40;;;;;;5056118;28;20041;-37
2022/04/13 06:00:50;;;;;;;8.85;5.30;;;14.50;69.50;;;;;;5055937;28;20100;-32
2022/04/13 06:03:17;;;;;;;13.98;5.47;;;14.50;69.50;;;;;;5055827;28;20052;-33
2022/04/13 06:05:43;;;;;;;10.20;5.72;;;14.60;69.60;;;;;;5055960;28;20029;-31
2022/04/13 06:08:08;;;;;;;8.20;5.85;;;14.50;69.60;;;;;;5055605;28;20388;-33
2022/04/13 06:10:34;;;;;;;9.77;6.25;;;14.60;69.70;;;;;;5055500;28;20021;-30
2022/04/13 06:12:59;;;;;;;12.18;6.30;;;14.70;69.70;;;;;;5055650;28;20379;-33
2022/04/13 06:15:25;;;;;;;10.57;6.38;;;14.60;69.60;;;;;;5055636;28;20476;-31
2022/04/13 06:17:50;;;;;;;7.60;5.72;;;14.70;70.10;;;;;;5055526;28;20511;-35
2022/04/13 06:20:16;;;;;;;12.73;6.15;;;14.70;69.70;;;;;;5038024;28;20029;-31
2022/04/13 06:22:43;;;;;;;12.60;6.80;;;14.70;69.80;;;;;;5055444;28;20124;-31
2022/04/13 06:25:10;;;;;;;13.13;6.57;;;14.80;69.90;;;;;;5055390;28;20107;-33
2022/04/13 06:27:36;;;;;;;11.52;6.90;;;14.70;69.90;;;;;;5055631;28;20031;-31
2022/04/13 06:30:03;;;;;;;11.40;7.38;;;14.60;70.00;;;;;;5055406;28;20058;-30
2022/04/13 06:32:36;;;;;;;12.70;7.40;;;14.60;70.20;;;;;;5055251;28;20037;-32
2022/04/13 06:35:02;;;;;;;;;;;14.60;70.50;;;;;;5055638;28;20072;-31
2022/04/13 06:37:28;;;;;;;8.73;6.95;;;14.60;70.40;;;;;;5054339;28;20452;-30
2022/04/13 06:39:54;;;;;;;12.48;7.60;;;14.60;70.40;;;;;;5055052;28;20051;-34
2022/04/13 06:42:22;;;;;;;11.02;7.82;;;14.70;70.40;;;;;;5054828;28;20029;-38
2022/04/13 06:44:49;;;;;;;9.02;7.47;;;14.80;70.40;;;;;;5055095;28;20094;-33
2022/04/13 06:47:15;;;;;;;12.00;8.52;;;14.90;70.30;;;;;;5055059;28;20117;-34
2022/04/13 06:49:40;;;;;;;9.60;7.90;;;15.00;70.20;;;;;;5054830;28;20048;-31
2022/04/13 06:52:06;;;;;;;11.15;7.85;;;15.10;70.20;;;;;;5054810;28;20025;-31
2022/04/13 06:54:32;;;;;;;10.70;8.05;;;15.10;70.10;;;;;;5054928;28;20049;-36
2022/04/13 06:56:57;;;;;;;13.77;8.15;;;15.20;70.20;;;;;;5054674;28;20028;-31
2022/04/13 06:59:23;;;;;;;11.13;8.60;;;15.20;70.10;;;;;;5054889;28;20037;-35
2022/04/13 07:01:48;;;;;;;10.00;7.55;;;15.30;70.20;;;;;;5054677;28;20028;-32
2022/04/13 07:04:14;;;;;;;12.93;8.25;;;15.30;70.20;;;;;;5054947;28;20029;-30
2022/04/13 07:06:39;;;;;;;10.23;7.75;;;15.30;70.30;;;;;;5054620;28;20483;-34
2022/04/13 07:09:05;;;;;;;11.60;7.90;;;15.30;70.20;;;;;;5054627;28;20128;-31
2022/04/13 07:11:30;;;;;;;10.95;7.85;;;15.30;70.20;;;;;;5054530;28;20025;-33
2022/04/13 07:13:56;;;;;;;11.88;8.25;;;15.40;70.30;;;;;;5054952;28;20032;-33
2022/04/13 07:16:22;;;;;;;16.10;8.52;;;15.40;70.40;;;;;;5054717;28;20499;-34
2022/04/13 07:18:48;;;;;;;12.05;8.30;;;15.30;70.60;;;;;;5054535;28;20025;-31
2022/04/13 07:21:13;;;;;;;13.95;9.25;;;15.30;70.80;;;;;;5054215;28;20492;-31
2022/04/13 07:23:39;;;;;;;13.43;8.85;;;15.40;70.80;;;;;;5054142;28;20051;-30
2022/04/13 07:26:04;;;;;;;11.57;9.13;;;15.40;70.90;;;;;;5054484;28;20032;-33
2022/04/13 07:28:30;;;;;;;11.63;8.65;;;15.40;70.90;;;;;;5054297;28;20385;-29
2022/04/13 07:30:55;;;;;;;11.02;8.63;;;15.50;70.80;;;;;;5054356;28;20476;-30
2022/04/13 07:33:21;;;;;;;14.70;8.75;;;15.60;70.70;;;;;;5054388;28;20024;-30
2022/04/13 07:35:47;;;;;;;12.88;8.93;;;15.80;70.60;;;;;;5054018;28;20529;-33
2022/04/13 07:38:13;;;;;;;14.20;9.55;;;15.90;70.50;;;;;;5054361;28;20029;-31
2022/04/13 07:40:38;;;;;;;15.93;9.68;;;16.00;70.40;;;;;;5054205;28;20025;-30
2022/04/13 07:43:04;;;;;;;14.48;8.98;;;16.00;70.40;;;;;;5054099;28;20017;-36
2022/04/13 07:45:30;;;;;;;10.98;8.45;;;16.10;70.30;;;;;;5053914;28;20421;-31
2022/04/13 07:47:56;;;;;;;12.77;9.25;;;16.20;70.10;;;;;;5053890;28;20032;-32
2022/04/13 07:50:21;;;;;;;14.77;10.20;;;16.30;70.20;;;;;;5053866;28;20424;-36
2022/04/13 07:52:47;;;;;;;15.93;10.88;;;16.30;70.20;;;;;;5035902;28;20100;-32
2022/04/13 07:55:13;;;;;;;14.40;9.73;;;16.30;70.20;;;;;;5053209;28;20021;-33
2022/04/13 07:57:39;;;;;;;13.63;9.77;;;16.30;70.20;;;;;;5053869;28;20021;-35
2022/04/13 08:00:07;;;;;;;13.07;9.80;;;16.30;70.20;;;;;;5053707;28;20424;-30
2022/04/13 08:02:34;;;;;;;12.30;9.13;;;16.30;70.30;;;;;;5053703;28;20060;-33
2022/04/13 08:05:00;;;;;;;15.52;8.32;;;16.40;70.30;;;;;;5053502;28;20024;-29
2022/04/13 08:07:26;;;;;;;11.93;8.40;;;16.40;70.20;;;;;;5053468;28;20549;-34
2022/04/13 08:09:51;;;;;;;13.38;9.05;;;16.50;70.20;;;;;;5053652;28;20078;-32
2022/04/13 08:12:17;;;;;;;11.45;8.57;;;16.50;70.10;;;;;;5053348;28;20112;-32
2022/04/13 08:14:46;;;;;;;14.15;8.70;;;16.50;70.00;;;;;;5053593;28;20024;-31
2022/04/13 08:17:13;;;;;;;12.48;8.55;;;16.60;70.00;;;;;;5053508;28;20029;-33
2022/04/13 08:19:38;;;;;;;11.18;8.35;;;16.60;69.90;;;;;;5053422;28;20499;-34
2022/04/13 08:22:04;;;;;;;11.98;8.27;;;16.60;69.90;;;;;;5053199;28;20044;-34
2022/04/13 08:24:29;;;;;;;11.93;7.40;;;16.70;69.90;;;;;;5053078;28;20029;-37
2022/04/13 08:26:58;;;;;;;15.13;8.88;;;16.70;69.80;;;;;;5053060;28;20040;-31
2022/04/13 08:29:24;;;;;;;10.20;7.78;;;16.80;69.70;;;;;;5053444;28;20029;-31
2022/04/13 08:31:50;;;;;;;14.23;8.30;;;16.90;69.50;;;;;;5052963;28;20031;-33
2022/04/13 08:34:16;;;;;;;11.48;8.40;;;16.90;69.40;;;;;;5035181;28;20024;-31
2022/04/13 08:36:41;;;;;;;12.23;8.55;;;16.90;69.40;;;;;;5053142;28;20013;-35
2022/04/13 08:39:13;;;;;;;13.35;8.02;;;16.90;69.50;;;;;;5052960;28;20028;-33
2022/04/13 08:41:42;;;;;;;12.32;8.43;;;16.90;69.60;;;;;;5053064;28;20447;-31
2022/04/13 08:44:14;;;;;;;10.65;8.30;;;16.80;69.60;;;;;;5052831;28;20457;-33
2022/04/13 08:46:43;;;;;;;15.73;8.17;;;16.90;69.60;;;;;;5052740;28;20028;-31
2022/04/13 08:49:09;;;;;;;16.00;8.65;;;16.90;69.60;;;;;;5052834;28;20278;-31
2022/04/13 08:51:36;;;;;;;14.23;8.63;;;16.90;69.60;;;;;;5052878;28;20384;-31
2022/04/13 08:54:19;;;;;;;11.55;7.85;;;16.90;69.60;;;;;;5035036;28;20021;-31
2022/04/13 08:56:48;;;;;;;9.63;7.88;;;16.90;69.50;;;;;;5052603;28;20029;-31
2022/04/13 08:59:13;;;;;;;10.65;8.10;;;17.00;69.40;;;;;;5053068;28;20025;-35
2022/04/13 09:02:05;;;;;;;10.32;7.28;;;17.10;69.20;;;;;;5052648;28;20052;-34
2022/04/13 09:04:32;;;;;;;11.75;6.80;;;17.20;69.10;;;;;;5037555;28;20029;-35
2022/04/13 09:07:00;;;;;;;11.52;7.05;;;17.30;69.00;;;;;;5055562;28;20502;-34
2022/04/13 09:09:35;;;;;;;9.75;6.95;;;17.40;69.00;;;;;;5056828;28;20174;-39
2022/04/13 09:12:02;;;;;;;9.45;6.05;;;17.40;68.70;;;;;;5056849;28;20071;-35
2022/04/13 09:14:29;;;;;;;9.40;5.90;;;17.60;68.40;;;;;;5037884;28;20029;-34
2022/04/13 09:16:55;;;;;;;9.00;5.78;;;17.70;68.20;;;;;;5056938;28;20022;-33
2022/04/13 09:19:23;;;;;;;6.70;5.10;;;17.90;68.00;;;;;;5056733;28;20033;-33
2022/04/13 09:21:51;;;;;;;6.93;5.03;;;18.00;67.60;;;;;;5056181;28;20025;-35
2022/04/13 09:24:18;;;;;;;7.60;4.97;;;18.10;67.30;;;;;;5056403;28;20029;-32
2022/04/13 09:26:45;;;;;;;6.05;4.28;;;18.20;67.00;;;;;;5056454;28;20118;-30
2022/04/13 09:29:10;;;;;;;5.40;3.83;;;18.30;66.60;;;;;;5056534;28;20517;-31
2022/04/13 09:31:36;;;;;;;6.78;3.80;;;18.30;66.20;;;;;;5038618;28;20078;-36
2022/04/13 09:34:02;;;;;;;6.95;4.03;;;18.40;66.00;;;;;;5056147;28;20029;-34
2022/04/13 09:36:28;;;;;;;5.90;3.58;;;18.40;65.70;;;;;;5056177;28;20377;-38
2022/04/13 09:38:56;;;;;;;4.43;3.28;;;18.50;65.30;;;;;;5056278;28;20025;-33
2022/04/13 09:41:33;;;;;;;5.22;3.22;;;18.50;64.90;;;;;;5056310;28;20029;-34
2022/04/13 09:43:58;;;;;;;5.40;3.00;;;18.60;64.60;;;;;;5056231;28;20033;-32
2022/04/13 09:46:28;;;;;;;6.28;2.70;;;18.70;64.10;;;;;;5056031;28;20123;-34
2022/04/13 09:49:10;;;;;;;4.72;2.60;;;18.70;63.90;;;;;;5056513;28;20021;-31
2022/04/13 09:51:40;;;;;;;7.22;2.90;;;18.90;63.60;;;;;;5055989;28;20071;-31
2022/04/13 09:54:10;;;;;;;4.55;2.53;;;18.80;63.50;;;;;;5056148;28;20017;-34
2022/04/13 09:56:44;;;;;;;3.80;2.70;;;18.90;63.50;;;;;;5056205;28;20025;-35
2022/04/13 09:59:11;;;;;;;4.78;2.50;;;19.00;63.20;;;;;;5056110;28;20092;-32
2022/04/13 10:01:37;;;;;;;4.75;3.05;;;19.00;63.30;;;;;;5055728;28;20082;-36
2022/04/13 10:04:03;;;;;;;4.82;2.97;;;19.00;63.20;;;;;;5055986;28;20423;-32
2022/04/13 10:06:30;;;;;;;6.82;2.88;;;19.00;63.20;;;;;;5055753;28;20028;-33
2022/04/13 10:09:08;;;;;;;4.47;2.58;;;18.90;63.90;;;;;;5055663;28;20032;-36
2022/04/13 10:11:34;;;;;;;5.03;3.10;;;19.00;63.50;;;;;;5055747;28;20025;-31
2022/04/13 10:14:07;;;;;;;5.32;3.50;;;18.90;63.50;;;;;;5055487;28;20031;-32
2022/04/13 10:16:34;;;;;;;5.00;3.90;;;18.80;63.60;;;;;;5037845;28;20036;-31
2022/04/13 10:19:02;;;;;;;7.18;3.78;;;18.80;63.80;;;;;;5036588;28;20017;-31
2022/04/13 10:21:40;;;;;;;6.03;3.83;;;18.70;64.10;;;;;;5055531;28;20503;-35
2022/04/13 10:24:08;;;;;;;7.25;4.22;;;18.50;64.20;;;;;;5055428;28;20069;-33
2022/04/13 10:26:34;;;;;;;5.68;4.28;;;18.50;64.60;;;;;;5055357;28;20468;-39
2022/04/13 10:28:59;;;;;;;6.72;3.97;;;18.40;64.70;;;;;;5055589;28;20029;-35
2022/04/13 10:31:25;;;;;;;7.25;4.20;;;18.40;64.90;;;;;;5055291;28;20129;-31
2022/04/13 10:33:52;;;;;;;5.88;3.75;;;18.40;64.90;;;;;;5055163;28;20464;-31
2022/04/13 10:36:19;;;;;;;5.60;3.83;;;18.40;65.00;;;;;;5055391;28;20052;-34
2022/04/13 10:38:45;;;;;;;5.05;3.58;;;18.40;65.00;;;;;;5055278;28;20544;-32
2022/04/13 10:41:19;;;;;;;5.82;3.35;;;18.40;64.90;;;;;;5037173;28;20021;-36
2022/04/13 10:43:50;;;;;;;6.03;3.15;;;18.40;64.80;;;;;;5054892;28;20036;-31
2022/04/13 10:46:20;;;;;;;4.60;2.80;;;18.40;64.80;;;;;;5054983;28;20489;-36
2022/04/13 10:48:52;;;;;;;3.83;2.35;;;18.40;65.30;;;;;;5055196;28;20510;-37
2022/04/13 10:51:27;;;;;;;5.63;3.40;;;18.40;64.60;;;;;;5054907;28;20028;-32
2022/04/13 10:54:00;;;;;;;5.03;3.20;;;18.40;64.50;;;;;;5037067;28;20021;-32
2022/04/13 10:56:33;;;;;;;4.70;2.80;;;18.20;64.40;;;;;;5036889;28;20055;-34
2022/04/13 10:59:14;;;;;;;3.92;3.15;;;18.10;64.40;;;;;;5055065;28;20033;-32
2022/04/13 11:01:53;;;;;;;4.22;3.20;;;18.10;64.60;;;;;;5054700;28;20031;-33
2022/04/13 11:04:21;;;;;;;6.22;3.28;;;18.10;64.70;;;;;;5054743;28;20052;-32
2022/04/13 11:06:48;;;;;;;4.07;3.10;;;18.10;64.80;;;;;;5054924;28;20098;-32
2022/04/13 11:09:25;;;;;;;5.50;3.30;;;18.20;64.80;;;;;;5054776;28;20028;-33
2022/04/13 11:11:53;;;;;;;6.38;3.13;;;18.20;64.80;;;;;;5054413;28;20025;-36
2022/04/13 11:14:20;;;;;;;7.70;3.95;;;18.10;64.80;;;;;;5054463;28;20025;-37
2022/04/13 11:16:47;;;;;;;5.57;3.75;;;18.10;64.90;;;;;;5036920;28;20029;-33
2022/04/13 11:19:12;;;;;;;5.50;3.67;;;18.10;65.00;;;;;;5054670;28;20461;-35
2022/04/13 11:21:50;;;;;;;7.10;3.58;;;18.20;65.10;;;;;;5054076;28;20031;-34
2022/04/13 11:24:58;;;;;;;6.35;3.70;;;18.30;65.10;;;;;;5054403;28;20030;-32
2022/04/13 11:27:25;;;;;;;7.60;4.03;;;18.40;64.90;;;;;;5054527;28;20025;-33
2022/04/13 11:30:02;;;;;;;7.50;4.15;;;18.40;64.80;;;;;;5054500;28;20040;-36
2022/04/13 11:32:33;;;;;;;6.32;4.20;;;18.30;64.90;;;;;;5053462;28;20071;-32
2022/04/13 11:35:00;;;;;;;5.75;4.05;;;18.30;65.10;;;;;;5054466;28;20519;-38
2022/04/13 11:37:26;;;;;;;6.30;3.92;;;18.20;65.20;;;;;;5054174;28;20024;-33
2022/04/13 11:39:57;;;;;;;6.72;4.50;;;18.20;65.20;;;;;;5054052;28;20102;-32
2022/04/13 11:42:24;;;;;;;7.68;4.80;;;18.20;65.20;;;;;;5054109;28;20077;-34
2022/04/13 11:45:12;;;;;;;8.02;4.30;;;18.20;65.90;;;;;;5053745;28;20066;-30
2022/04/13 11:47:44;;;;;;;5.90;3.80;;;18.10;65.30;;;;;;5053643;28;20025;-33
2022/04/13 11:50:18;;;;;;;7.60;4.20;;;18.10;65.40;;;;;;5053732;28;20037;-34
2022/04/13 11:52:54;;;;;;;6.63;3.83;;;18.10;65.40;;;;;;5054101;28;20028;-36
2022/04/13 11:55:24;;;;;;;5.35;3.80;;;18.10;65.40;;;;;;5053859;28;20524;-32
2022/04/13 11:58:04;;;;;;;6.72;3.83;;;18.10;65.40;;;;;;5035790;28;20056;-31
2022/04/13 12:00:43;;;;;;;7.00;4.00;;;18.10;65.40;;;;;;5053727;28;20032;-33
2022/04/13 12:03:11;;;;;;;5.78;4.03;;;18.00;65.50;;;;;;5035651;28;20032;-30
2022/04/13 12:05:48;;;;;;;6.38;3.90;;;18.00;65.70;;;;;;5053463;28;20078;-32
2022/04/13 12:08:16;;;;;;;6.53;3.70;;;17.90;65.80;;;;;;5053529;28;20099;-32
2022/04/13 12:10:46;;;;;;;6.60;3.90;;;17.90;65.80;;;;;;5053651;28;20041;-31
2022/04/13 12:13:13;;;;;;;5.88;4.13;;;17.90;66.00;;;;;;5053520;28;20040;-34
2022/04/13 12:15:52;;;;;;;7.68;4.20;;;17.90;66.10;;;;;;5053481;28;20029;-33
2022/04/13 12:18:23;;;;;;;7.43;4.05;;;17.80;66.40;;;;;;5053298;28;20386;-33
2022/04/13 12:20:50;;;;;;;5.72;3.40;;;17.80;66.60;;;;;;5053054;28;20018;-34
2022/04/13 12:23:21;;;;;;;7.82;3.97;;;17.70;66.70;;;;;;5052975;28;20507;-35
2022/04/13 12:25:50;;;;;;;7.10;4.10;;;17.70;66.90;;;;;;5053482;28;20385;-34
2022/04/13 12:28:16;;;;;;;8.55;4.47;;;17.70;66.90;;;;;;5053279;28;20021;-34
2022/04/13 12:30:42;;;;;;;6.22;3.47;;;17.80;67.00;;;;;;5053042;28;20380;-34
2022/04/13 12:33:21;;;;;;;5.47;3.78;;;17.80;67.00;;;;;;5053227;28;20036;-32
2022/04/13 12:35:52;;;;;;;6.60;3.88;;;17.80;67.10;;;;;;5053215;28;20332;-34
2022/04/13 12:38:22;;;;;;;6.70;4.10;;;17.80;67.20;;;;;;5053083;28;20415;-32
2022/04/13 12:40:48;;;;;;;5.88;3.80;;;17.70;67.20;;;;;;5052436;28;20043;-35
2022/04/13 12:43:26;;;;;;;6.53;4.20;;;17.70;67.20;;;;;;5052971;28;20025;-35
2022/04/13 12:45:52;;;;;;;7.22;3.50;;;17.80;67.20;;;;;;5052993;28;20025;-32
2022/04/13 12:48:24;;;;;;;7.10;3.55;;;17.80;67.10;;;;;;5052804;28;20472;-32